sensor_id;sensor_type;location;lat;lon;timestamp;pressure;altitude;pressure_sealevel;temperature;humidity
80414;BME280;69758;52.580;13.068;2024-01-15T00:01:09;99129.55;;;6.85;37.66
80414;BME280;69758;52.580;13.068;2024-01-15T00:03:34;99121.21;;;6.55;37.73
80414;BME280;69758;52.580;13.068;2024-01-15T00:05:59;99110.01;;;6.81;37.76
80414;BME280;69758;52.580;13.068;2024-01-15T00:08:25;99111.09;;;6.64;37.99
80414;BME280;69758;52.580;13.068;2024-01-15T00:10:50;99107.83;;;6.10;39.32
80414;BME280;69758;52.580;13.068;2024-01-15T00:13:16;99106.50;;;6.00;39.27
80414;BME280;69758;52.580;13.068;2024-01-15T00:15:41;99100.52;;;5.77;39.26
80414;BME280;69758;52.580;13.068;2024-01-15T00:18:06;99096.02;;;6.11;38.76
80414;BME280;69758;52.580;13.068;2024-01-15T00:20:32;99094.52;;;6.12;38.65
80414;BME280;69758;52.580;13.068;2024-01-15T00:22:57;99088.76;;;6.63;38.05
80414;BME280;69758;52.580;13.068;2024-01-15T00:25:23;99085.29;;;6.91;37.49
80414;BME280;69758;52.580;13.068;2024-01-15T00:27:48;99083.92;;;6.82;37.57
80414;BME280;69758;52.580;13.068;2024-01-15T00:30:14;99083.00;;;6.75;37.58
80414;BME280;69758;52.580;13.068;2024-01-15T00:32:39;99076.54;;;6.72;37.63
80414;BME280;69758;52.580;13.068;2024-01-15T00:35:05;99074.43;;;6.75;37.45
80414;BME280;69758;52.580;13.068;2024-01-15T00:37:30;99067.98;;;6.57;37.69
80414;BME280;69758;52.580;13.068;2024-01-15T00:39:55;99067.14;;;6.98;37.21
80414;BME280;69758;52.580;13.068;2024-01-15T00:42:20;99067.74;;;6.82;36.95
80414;BME280;69758;52.580;13.068;2024-01-15T00:44:46;99066.34;;;7.08;37.31
80414;BME280;69758;52.580;13.068;2024-01-15T00:47:12;99068.43;;;7.00;36.96
80414;BME280;69758;52.580;13.068;2024-01-15T00:49:37;99063.58;;;6.42;37.10
80414;BME280;69758;52.580;13.068;2024-01-15T00:52:03;99062.16;;;6.98;36.74
80414;BME280;69758;52.580;13.068;2024-01-15T00:54:28;99069.22;;;6.92;37.24
80414;BME280;69758;52.580;13.068;2024-01-15T00:56:54;99065.34;;;7.20;36.91
80414;BME280;69758;52.580;13.068;2024-01-15T00:59:19;99061.96;;;6.86;37.29
80414;BME280;69758;52.580;13.068;2024-01-15T01:01:45;99060.56;;;6.88;37.38
80414;BME280;69758;52.580;13.068;2024-01-15T01:04:10;99055.64;;;6.77;37.57
80414;BME280;69758;52.580;13.068;2024-01-15T01:06:35;99049.77;;;6.89;37.07
80414;BME280;69758;52.580;13.068;2024-01-15T01:09:00;99052.61;;;6.55;37.95
80414;BME280;69758;52.580;13.068;2024-01-15T01:11:26;99045.38;;;6.85;37.66
80414;BME280;69758;52.580;13.068;2024-01-15T01:13:52;99053.31;;;7.00;37.47
80414;BME280;69758;52.580;13.068;2024-01-15T01:16:17;99054.90;;;7.19;37.22
80414;BME280;69758;52.580;13.068;2024-01-15T01:18:42;99046.24;;;6.94;37.19
80414;BME280;69758;52.580;13.068;2024-01-15T01:21:09;99053.70;;;7.04;36.77
80414;BME280;69758;52.580;13.068;2024-01-15T01:23:33;99053.84;;;7.03;37.36
80414;BME280;69758;52.580;13.068;2024-01-15T01:25:59;99054.98;;;7.24;37.08
80414;BME280;69758;52.580;13.068;2024-01-15T01:28:25;99057.68;;;7.01;37.42
80414;BME280;69758;52.580;13.068;2024-01-15T01:30:50;99054.69;;;7.10;37.21
80414;BME280;69758;52.580;13.068;2024-01-15T01:33:16;99060.16;;;6.38;38.69
80414;BME280;69758;52.580;13.068;2024-01-15T01:35:41;99060.35;;;6.76;38.26
80414;BME280;69758;52.580;13.068;2024-01-15T01:38:06;99059.05;;;6.85;37.85
80414;BME280;69758;52.580;13.068;2024-01-15T01:40:32;99049.12;;;6.83;37.70
80414;BME280;69758;52.580;13.068;2024-01-15T01:42:57;99049.16;;;6.28;38.61
80414;BME280;69758;52.580;13.068;2024-01-15T01:45:22;99049.94;;;6.66;38.12
80414;BME280;69758;52.580;13.068;2024-01-15T01:47:48;99045.86;;;6.68;37.69
80414;BME280;69758;52.580;13.068;2024-01-15T01:50:14;99044.38;;;7.20;37.37
80414;BME280;69758;52.580;13.068;2024-01-15T01:52:39;99042.43;;;7.15;36.98
80414;BME280;69758;52.580;13.068;2024-01-15T01:55:06;99033.37;;;7.20;36.98
80414;BME280;69758;52.580;13.068;2024-01-15T01:57:31;99029.00;;;6.84;37.46
80414;BME280;69758;52.580;13.068;2024-01-15T01:59:56;99026.37;;;6.79;37.50
80414;BME280;69758;52.580;13.068;2024-01-15T02:02:22;99013.69;;;7.00;36.95
80414;BME280;69758;52.580;13.068;2024-01-15T02:04:48;99022.02;;;6.93;37.24
80414;BME280;69758;52.580;13.068;2024-01-15T02:07:12;99027.92;;;6.92;37.11
80414;BME280;69758;52.580;13.068;2024-01-15T02:09:38;99023.85;;;6.57;37.34
80414;BME280;69758;52.580;13.068;2024-01-15T02:12:05;99023.70;;;6.74;37.24
80414;BME280;69758;52.580;13.068;2024-01-15T02:14:29;99022.19;;;6.43;37.55
80414;BME280;69758;52.580;13.068;2024-01-15T02:16:54;99014.86;;;6.66;37.20
80414;BME280;69758;52.580;13.068;2024-01-15T02:19:20;99005.90;;;6.17;37.89
80414;BME280;69758;52.580;13.068;2024-01-15T02:21:45;99006.18;;;6.06;37.81
80414;BME280;69758;52.580;13.068;2024-01-15T02:24:11;99001.60;;;6.16;37.68
80414;BME280;69758;52.580;13.068;2024-01-15T02:26:36;99000.18;;;6.05;37.99
80414;BME280;69758;52.580;13.068;2024-01-15T02:29:02;99001.30;;;5.97;38.13
80414;BME280;69758;52.580;13.068;2024-01-15T02:31:27;99004.71;;;6.13;37.26
80414;BME280;69758;52.580;13.068;2024-01-15T02:33:52;99007.11;;;5.97;37.63
80414;BME280;69758;52.580;13.068;2024-01-15T02:36:18;99006.49;;;6.20;37.34
80414;BME280;69758;52.580;13.068;2024-01-15T02:38:44;99006.76;;;6.22;36.92
80414;BME280;69758;52.580;13.068;2024-01-15T02:41:09;99005.73;;;6.38;36.65
80414;BME280;69758;52.580;13.068;2024-01-15T02:43:35;98998.58;;;5.88;36.88
80414;BME280;69758;52.580;13.068;2024-01-15T02:46:00;99006.09;;;6.40;36.77
80414;BME280;69758;52.580;13.068;2024-01-15T02:48:26;98999.71;;;6.63;36.19
80414;BME280;69758;52.580;13.068;2024-01-15T02:50:51;98998.53;;;6.00;37.28
80414;BME280;69758;52.580;13.068;2024-01-15T02:53:17;98990.94;;;6.52;36.92
80414;BME280;69758;52.580;13.068;2024-01-15T02:55:43;98996.95;;;5.36;38.11
80414;BME280;69758;52.580;13.068;2024-01-15T02:58:08;98988.82;;;5.99;37.82
80414;BME280;69758;52.580;13.068;2024-01-15T03:00:33;98978.68;;;5.83;36.85
80414;BME280;69758;52.580;13.068;2024-01-15T03:02:59;98987.58;;;5.98;36.90
80414;BME280;69758;52.580;13.068;2024-01-15T03:05:24;98987.06;;;6.07;36.75
80414;BME280;69758;52.580;13.068;2024-01-15T03:07:49;98987.39;;;6.37;36.33
80414;BME280;69758;52.580;13.068;2024-01-15T03:10:15;98986.87;;;6.45;35.94
80414;BME280;69758;52.580;13.068;2024-01-15T03:12:40;98983.06;;;6.31;36.35
80414;BME280;69758;52.580;13.068;2024-01-15T03:15:06;98981.05;;;6.17;36.56
80414;BME280;69758;52.580;13.068;2024-01-15T03:17:32;98975.47;;;6.62;36.63
80414;BME280;69758;52.580;13.068;2024-01-15T03:19:57;98976.16;;;6.56;36.09
80414;BME280;69758;52.580;13.068;2024-01-15T03:22:22;98971.13;;;6.56;35.95
80414;BME280;69758;52.580;13.068;2024-01-15T03:24:48;98971.93;;;6.60;36.16
80414;BME280;69758;52.580;13.068;2024-01-15T03:27:13;98972.95;;;5.68;37.83
80414;BME280;69758;52.580;13.068;2024-01-15T03:29:39;98975.83;;;6.13;37.14
80414;BME280;69758;52.580;13.068;2024-01-15T03:32:05;98966.22;;;5.56;37.57
80414;BME280;69758;52.580;13.068;2024-01-15T03:34:30;98971.44;;;5.91;37.72
80414;BME280;69758;52.580;13.068;2024-01-15T03:36:55;98961.43;;;5.38;38.06
80414;BME280;69758;52.580;13.068;2024-01-15T03:39:21;98956.26;;;5.45;38.05
80414;BME280;69758;52.580;13.068;2024-01-15T03:41:46;98959.43;;;5.91;37.30
80414;BME280;69758;52.580;13.068;2024-01-15T03:44:12;98951.52;;;5.71;37.49
80414;BME280;69758;52.580;13.068;2024-01-15T03:46:37;98948.04;;;5.73;37.35
80414;BME280;69758;52.580;13.068;2024-01-15T03:49:03;98947.98;;;5.23;38.25
80414;BME280;69758;52.580;13.068;2024-01-15T03:51:28;98940.80;;;5.36;38.13
80414;BME280;69758;52.580;13.068;2024-01-15T03:53:54;98940.25;;;5.88;37.48
80414;BME280;69758;52.580;13.068;2024-01-15T03:56:19;98937.62;;;6.06;37.31
80414;BME280;69758;52.580;13.068;2024-01-15T03:58:45;98929.30;;;5.51;37.29
80414;BME280;69758;52.580;13.068;2024-01-15T04:01:10;98938.22;;;6.52;36.58
80414;BME280;69758;52.580;13.068;2024-01-15T04:03:36;98924.59;;;6.11;36.07
80414;BME280;69758;52.580;13.068;2024-01-15T04:06:01;98931.32;;;5.94;36.48
80414;BME280;69758;52.580;13.068;2024-01-15T04:08:27;98919.61;;;5.63;37.13
80414;BME280;69758;52.580;13.068;2024-01-15T04:10:53;98927.29;;;5.50;37.02
80414;BME280;69758;52.580;13.068;2024-01-15T04:13:18;98930.84;;;5.44;37.89
80414;BME280;69758;52.580;13.068;2024-01-15T04:15:43;98938.05;;;5.32;37.73
80414;BME280;69758;52.580;13.068;2024-01-15T04:18:09;98935.60;;;5.57;37.53
80414;BME280;69758;52.580;13.068;2024-01-15T04:20:34;98932.04;;;5.31;37.73
80414;BME280;69758;52.580;13.068;2024-01-15T04:23:00;98933.36;;;5.10;38.25
80414;BME280;69758;52.580;13.068;2024-01-15T04:25:25;98932.89;;;5.23;37.76
80414;BME280;69758;52.580;13.068;2024-01-15T04:27:51;98933.39;;;6.04;36.96
80414;BME280;69758;52.580;13.068;2024-01-15T04:30:17;98928.76;;;6.05;36.43
80414;BME280;69758;52.580;13.068;2024-01-15T04:32:42;98931.97;;;5.77;36.97
80414;BME280;69758;52.580;13.068;2024-01-15T04:35:08;98929.10;;;6.17;36.71
80414;BME280;69758;52.580;13.068;2024-01-15T04:37:33;98931.86;;;5.53;36.86
80414;BME280;69758;52.580;13.068;2024-01-15T04:39:58;98935.01;;;6.06;36.33
80414;BME280;69758;52.580;13.068;2024-01-15T04:42:24;98929.39;;;6.01;36.31
80414;BME280;69758;52.580;13.068;2024-01-15T04:44:50;98923.33;;;6.08;36.31
80414;BME280;69758;52.580;13.068;2024-01-15T04:47:15;98914.52;;;6.24;36.40
80414;BME280;69758;52.580;13.068;2024-01-15T04:49:41;98914.68;;;6.32;35.81
80414;BME280;69758;52.580;13.068;2024-01-15T04:52:06;98907.13;;;6.85;35.38
80414;BME280;69758;52.580;13.068;2024-01-15T04:54:32;98900.90;;;6.20;36.30
80414;BME280;69758;52.580;13.068;2024-01-15T04:56:57;98905.82;;;6.44;36.10
80414;BME280;69758;52.580;13.068;2024-01-15T04:59:23;98914.51;;;6.28;36.25
80414;BME280;69758;52.580;13.068;2024-01-15T05:01:48;98902.59;;;5.88;36.50
80414;BME280;69758;52.580;13.068;2024-01-15T05:04:13;98904.30;;;5.71;36.51
80414;BME280;69758;52.580;13.068;2024-01-15T05:06:39;98905.47;;;5.86;36.26
80414;BME280;69758;52.580;13.068;2024-01-15T05:09:05;98904.47;;;5.53;37.14
80414;BME280;69758;52.580;13.068;2024-01-15T05:11:31;98910.08;;;5.25;37.75
80414;BME280;69758;52.580;13.068;2024-01-15T05:13:56;98907.89;;;6.05;36.76
80414;BME280;69758;52.580;13.068;2024-01-15T05:16:21;98905.46;;;5.86;36.62
80414;BME280;69758;52.580;13.068;2024-01-15T05:18:46;98898.36;;;5.62;36.99
80414;BME280;69758;52.580;13.068;2024-01-15T05:21:12;98889.42;;;6.02;36.16
80414;BME280;69758;52.580;13.068;2024-01-15T05:23:38;98889.26;;;5.73;36.39
80414;BME280;69758;52.580;13.068;2024-01-15T05:26:03;98878.76;;;6.12;35.74
80414;BME280;69758;52.580;13.068;2024-01-15T05:28:28;98880.00;;;6.09;36.03
80414;BME280;69758;52.580;13.068;2024-01-15T05:30:54;98888.91;;;5.95;36.18
80414;BME280;69758;52.580;13.068;2024-01-15T05:33:20;98892.15;;;5.82;36.78
80414;BME280;69758;52.580;13.068;2024-01-15T05:35:45;98886.48;;;5.79;36.45
80414;BME280;69758;52.580;13.068;2024-01-15T05:38:10;98888.07;;;6.31;35.67
80414;BME280;69758;52.580;13.068;2024-01-15T05:40:36;98877.40;;;5.80;37.16
80414;BME280;69758;52.580;13.068;2024-01-15T05:43:01;98880.41;;;5.23;38.82
80414;BME280;69758;52.580;13.068;2024-01-15T05:45:27;98884.35;;;5.59;38.68
80414;BME280;69758;52.580;13.068;2024-01-15T05:47:53;98883.67;;;5.49;38.41
80414;BME280;69758;52.580;13.068;2024-01-15T05:50:18;98878.35;;;5.74;37.61
80414;BME280;69758;52.580;13.068;2024-01-15T05:52:44;98897.86;;;5.62;38.11
80414;BME280;69758;52.580;13.068;2024-01-15T05:55:09;98885.95;;;5.67;38.13
80414;BME280;69758;52.580;13.068;2024-01-15T05:57:35;98887.49;;;5.52;37.80
80414;BME280;69758;52.580;13.068;2024-01-15T06:00:00;98880.99;;;6.45;36.88
80414;BME280;69758;52.580;13.068;2024-01-15T06:02:26;98887.22;;;6.74;36.61
80414;BME280;69758;52.580;13.068;2024-01-15T06:04:52;98882.39;;;6.52;36.34
80414;BME280;69758;52.580;13.068;2024-01-15T06:07:17;98875.81;;;6.57;36.08
80414;BME280;69758;52.580;13.068;2024-01-15T06:09:42;98875.83;;;6.39;35.98
80414;BME280;69758;52.580;13.068;2024-01-15T06:12:08;98879.08;;;6.72;35.36
80414;BME280;69758;52.580;13.068;2024-01-15T06:14:33;98887.59;;;6.18;36.03
80414;BME280;69758;52.580;13.068;2024-01-15T06:16:59;98880.01;;;6.37;36.15
80414;BME280;69758;52.580;13.068;2024-01-15T06:19:24;98872.69;;;6.14;36.56
80414;BME280;69758;52.580;13.068;2024-01-15T06:21:50;98867.42;;;6.62;36.11
80414;BME280;69758;52.580;13.068;2024-01-15T06:24:16;98869.57;;;6.46;36.66
80414;BME280;69758;52.580;13.068;2024-01-15T06:26:41;98873.83;;;6.66;36.21
80414;BME280;69758;52.580;13.068;2024-01-15T06:29:07;98869.43;;;6.74;36.02
80414;BME280;69758;52.580;13.068;2024-01-15T06:31:33;98868.84;;;6.61;35.92
80414;BME280;69758;52.580;13.068;2024-01-15T06:33:58;98874.25;;;6.70;36.09
80414;BME280;69758;52.580;13.068;2024-01-15T06:36:23;98864.01;;;6.61;36.25
80414;BME280;69758;52.580;13.068;2024-01-15T06:38:49;98871.26;;;6.20;36.96
80414;BME280;69758;52.580;13.068;2024-01-15T06:41:14;98867.09;;;6.61;36.68
80414;BME280;69758;52.580;13.068;2024-01-15T06:43:40;98864.92;;;6.40;36.39
80414;BME280;69758;52.580;13.068;2024-01-15T06:46:05;98867.66;;;6.29;36.71
80414;BME280;69758;52.580;13.068;2024-01-15T06:48:31;98869.48;;;5.20;37.42
80414;BME280;69758;52.580;13.068;2024-01-15T06:50:56;98871.89;;;6.08;36.80
80414;BME280;69758;52.580;13.068;2024-01-15T06:53:22;98873.35;;;5.89;36.97
80414;BME280;69758;52.580;13.068;2024-01-15T06:55:47;98882.13;;;5.47;37.68
80414;BME280;69758;52.580;13.068;2024-01-15T06:58:13;98890.62;;;5.57;37.53
80414;BME280;69758;52.580;13.068;2024-01-15T07:00:38;98887.86;;;5.50;37.22
80414;BME280;69758;52.580;13.068;2024-01-15T07:03:04;98896.23;;;5.60;37.37
80414;BME280;69758;52.580;13.068;2024-01-15T07:05:29;98891.33;;;5.91;36.49
80414;BME280;69758;52.580;13.068;2024-01-15T07:07:55;98898.61;;;6.13;36.01
80414;BME280;69758;52.580;13.068;2024-01-15T07:10:20;98904.49;;;6.49;35.43
80414;BME280;69758;52.580;13.068;2024-01-15T07:12:46;98901.82;;;6.06;35.86
80414;BME280;69758;52.580;13.068;2024-01-15T07:15:11;98914.60;;;5.73;36.41
80414;BME280;69758;52.580;13.068;2024-01-15T07:17:37;98916.30;;;5.84;36.14
80414;BME280;69758;52.580;13.068;2024-01-15T07:20:03;98927.10;;;5.67;36.63
80414;BME280;69758;52.580;13.068;2024-01-15T07:22:28;98923.94;;;6.21;36.31
80414;BME280;69758;52.580;13.068;2024-01-15T07:24:53;98935.65;;;6.32;36.02
80414;BME280;69758;52.580;13.068;2024-01-15T07:27:19;98933.13;;;6.39;35.99
80414;BME280;69758;52.580;13.068;2024-01-15T07:29:44;98942.66;;;6.05;35.86
80414;BME280;69758;52.580;13.068;2024-01-15T07:32:10;98941.35;;;6.49;35.25
80414;BME280;69758;52.580;13.068;2024-01-15T07:34:36;98942.40;;;6.39;35.37
80414;BME280;69758;52.580;13.068;2024-01-15T07:37:01;98938.55;;;6.05;35.85
80414;BME280;69758;52.580;13.068;2024-01-15T07:39:26;98957.66;;;6.30;35.59
80414;BME280;69758;52.580;13.068;2024-01-15T07:41:52;98951.27;;;6.27;35.52
80414;BME280;69758;52.580;13.068;2024-01-15T07:44:18;98956.01;;;6.34;36.06
80414;BME280;69758;52.580;13.068;2024-01-15T07:46:44;98959.27;;;6.14;35.75
80414;BME280;69758;52.580;13.068;2024-01-15T07:49:08;98960.71;;;6.87;35.44
80414;BME280;69758;52.580;13.068;2024-01-15T07:51:34;98959.63;;;6.67;35.15
80414;BME280;69758;52.580;13.068;2024-01-15T07:53:59;98960.71;;;6.50;35.62
80414;BME280;69758;52.580;13.068;2024-01-15T07:56:25;98962.45;;;6.41;35.44
80414;BME280;69758;52.580;13.068;2024-01-15T07:58:51;98963.49;;;6.56;35.32
80414;BME280;69758;52.580;13.068;2024-01-15T08:01:16;98974.64;;;6.75;35.07
80414;BME280;69758;52.580;13.068;2024-01-15T08:03:42;98972.02;;;6.63;35.06
80414;BME280;69758;52.580;13.068;2024-01-15T08:06:07;98972.05;;;6.86;34.92
80414;BME280;69758;52.580;13.068;2024-01-15T08:08:33;98973.39;;;6.28;35.00
80414;BME280;69758;52.580;13.068;2024-01-15T08:10:58;98962.73;;;6.96;34.76
80414;BME280;69758;52.580;13.068;2024-01-15T08:13:26;98959.91;;;6.94;34.80
80414;BME280;69758;52.580;13.068;2024-01-15T08:15:49;98964.27;;;7.19;34.86
80414;BME280;69758;52.580;13.068;2024-01-15T08:18:15;98960.83;;;6.45;35.75
80414;BME280;69758;52.580;13.068;2024-01-15T08:20:40;98954.33;;;6.32;35.59
80414;BME280;69758;52.580;13.068;2024-01-15T08:23:06;98948.44;;;6.50;35.46
80414;BME280;69758;52.580;13.068;2024-01-15T08:25:32;98959.57;;;6.88;35.52
80414;BME280;69758;52.580;13.068;2024-01-15T08:27:57;98966.46;;;6.21;35.68
80414;BME280;69758;52.580;13.068;2024-01-15T08:30:22;98959.28;;;6.02;36.08
80414;BME280;69758;52.580;13.068;2024-01-15T08:32:48;98954.10;;;6.26;35.77
80414;BME280;69758;52.580;13.068;2024-01-15T08:35:13;98967.13;;;6.33;35.37
80414;BME280;69758;52.580;13.068;2024-01-15T08:37:39;98965.24;;;6.32;35.41
80414;BME280;69758;52.580;13.068;2024-01-15T08:40:05;98961.95;;;6.80;34.82
80414;BME280;69758;52.580;13.068;2024-01-15T08:42:30;98960.58;;;7.10;34.57
80414;BME280;69758;52.580;13.068;2024-01-15T08:44:55;98962.45;;;7.02;34.47
80414;BME280;69758;52.580;13.068;2024-01-15T08:47:21;98957.41;;;7.08;35.17
80414;BME280;69758;52.580;13.068;2024-01-15T08:49:46;98965.00;;;6.32;35.84
80414;BME280;69758;52.580;13.068;2024-01-15T08:52:12;98956.21;;;6.57;35.88
80414;BME280;69758;52.580;13.068;2024-01-15T08:54:37;98953.65;;;6.51;35.73
80414;BME280;69758;52.580;13.068;2024-01-15T08:57:03;98965.53;;;6.35;35.84
80414;BME280;69758;52.580;13.068;2024-01-15T08:59:28;98973.73;;;6.65;36.04
80414;BME280;69758;52.580;13.068;2024-01-15T09:01:54;98970.14;;;6.19;36.52
80414;BME280;69758;52.580;13.068;2024-01-15T09:04:19;98971.59;;;6.42;36.26
80414;BME280;69758;52.580;13.068;2024-01-15T09:06:45;98980.46;;;6.70;35.65
80414;BME280;69758;52.580;13.068;2024-01-15T09:09:10;98974.87;;;6.50;36.46
80414;BME280;69758;52.580;13.068;2024-01-15T09:11:36;98982.34;;;6.04;36.99
80414;BME280;69758;52.580;13.068;2024-01-15T09:14:01;98982.56;;;5.99;36.95
80414;BME280;69758;52.580;13.068;2024-01-15T09:16:27;98985.55;;;6.35;36.18
80414;BME280;69758;52.580;13.068;2024-01-15T09:18:52;98997.82;;;6.61;35.79
80414;BME280;69758;52.580;13.068;2024-01-15T09:21:18;99001.95;;;6.68;36.37
80414;BME280;69758;52.580;13.068;2024-01-15T09:23:43;98988.85;;;6.23;36.39
80414;BME280;69758;52.580;13.068;2024-01-15T09:26:08;98995.27;;;6.35;35.94
80414;BME280;69758;52.580;13.068;2024-01-15T09:28:34;98985.62;;;5.55;37.00
80414;BME280;69758;52.580;13.068;2024-01-15T09:30:59;98988.13;;;5.93;37.44
80414;BME280;69758;52.580;13.068;2024-01-15T09:33:25;98986.72;;;5.91;37.31
80414;BME280;69758;52.580;13.068;2024-01-15T09:35:50;98995.33;;;5.94;36.55
80414;BME280;69758;52.580;13.068;2024-01-15T09:38:16;98994.79;;;6.37;36.80
80414;BME280;69758;52.580;13.068;2024-01-15T09:40:43;99012.17;;;6.68;35.80
80414;BME280;69758;52.580;13.068;2024-01-15T09:43:07;99005.87;;;6.96;35.38
80414;BME280;69758;52.580;13.068;2024-01-15T09:45:33;98995.10;;;7.06;34.93
80414;BME280;69758;52.580;13.068;2024-01-15T09:47:58;99003.45;;;6.93;35.09
80414;BME280;69758;52.580;13.068;2024-01-15T09:50:23;99001.00;;;6.78;35.42
80414;BME280;69758;52.580;13.068;2024-01-15T09:52:49;98992.24;;;6.72;35.58
80414;BME280;69758;52.580;13.068;2024-01-15T09:55:17;98988.98;;;6.51;35.87
80414;BME280;69758;52.580;13.068;2024-01-15T09:57:39;98996.64;;;6.22;36.42
80414;BME280;69758;52.580;13.068;2024-01-15T10:00:07;98995.33;;;6.34;36.25
80414;BME280;69758;52.580;13.068;2024-01-15T10:02:31;98999.90;;;6.66;35.68
80414;BME280;69758;52.580;13.068;2024-01-15T10:04:56;98991.79;;;6.71;35.31
80414;BME280;69758;52.580;13.068;2024-01-15T10:07:21;98990.63;;;6.48;35.98
80414;BME280;69758;52.580;13.068;2024-01-15T10:09:47;98991.74;;;6.78;35.52
80414;BME280;69758;52.580;13.068;2024-01-15T10:12:12;98978.44;;;6.66;35.59
80414;BME280;69758;52.580;13.068;2024-01-15T10:14:38;98983.71;;;6.91;35.06
80414;BME280;69758;52.580;13.068;2024-01-15T10:17:12;98984.08;;;7.32;34.51
80414;BME280;69758;52.580;13.068;2024-01-15T10:19:31;98979.01;;;7.40;34.65
80414;BME280;69758;52.580;13.068;2024-01-15T10:21:55;98981.30;;;7.27;34.53
80414;BME280;69758;52.580;13.068;2024-01-15T10:24:20;98971.91;;;7.08;34.75
80414;BME280;69758;52.580;13.068;2024-01-15T10:26:45;98978.65;;;6.71;35.38
80414;BME280;69758;52.580;13.068;2024-01-15T10:29:11;98976.17;;;6.49;35.81
80414;BME280;69758;52.580;13.068;2024-01-15T10:31:37;98985.58;;;6.28;36.20
80414;BME280;69758;52.580;13.068;2024-01-15T10:34:10;98975.91;;;6.20;36.57
80414;BME280;69758;52.580;13.068;2024-01-15T10:36:28;98983.61;;;6.32;36.66
80414;BME280;69758;52.580;13.068;2024-01-15T10:38:57;98995.33;;;6.02;36.47
80414;BME280;69758;52.580;13.068;2024-01-15T10:41:19;98999.71;;;6.50;35.89
80414;BME280;69758;52.580;13.068;2024-01-15T10:43:45;98993.63;;;6.38;36.13
80414;BME280;69758;52.580;13.068;2024-01-15T10:46:10;99001.91;;;6.37;35.93
80414;BME280;69758;52.580;13.068;2024-01-15T10:48:36;98998.58;;;6.10;36.26
80414;BME280;69758;52.580;13.068;2024-01-15T10:51:01;98987.47;;;6.05;36.99
80414;BME280;69758;52.580;13.068;2024-01-15T10:53:26;98990.40;;;5.85;37.37
80414;BME280;69758;52.580;13.068;2024-01-15T10:55:52;98985.20;;;6.10;36.67
80414;BME280;69758;52.580;13.068;2024-01-15T10:58:18;98983.13;;;6.52;35.91
80414;BME280;69758;52.580;13.068;2024-01-15T11:00:43;98986.85;;;6.60;35.76
80414;BME280;69758;52.580;13.068;2024-01-15T11:03:09;98987.59;;;6.56;35.74
80414;BME280;69758;52.580;13.068;2024-01-15T11:05:36;98993.86;;;6.24;36.11
80414;BME280;69758;52.580;13.068;2024-01-15T11:08:00;98993.50;;;6.72;35.77
80414;BME280;69758;52.580;13.068;2024-01-15T11:10:38;98987.95;;;6.63;35.98
80414;BME280;69758;52.580;13.068;2024-01-15T11:12:50;98991.16;;;6.37;36.86
80414;BME280;69758;52.580;13.068;2024-01-15T11:15:19;98999.96;;;6.38;36.89
80414;BME280;69758;52.580;13.068;2024-01-15T11:17:58;99000.81;;;6.33;37.42
80414;BME280;69758;52.580;13.068;2024-01-15T11:20:07;98996.77;;;5.67;37.63
80414;BME280;69758;52.580;13.068;2024-01-15T11:22:47;99004.92;;;5.55;37.89
80414;BME280;69758;52.580;13.068;2024-01-15T11:25:02;99006.98;;;6.53;37.54
80414;BME280;69758;52.580;13.068;2024-01-15T11:32:15;99008.70;;;6.70;36.66
80414;BME280;69758;52.580;13.068;2024-01-15T11:34:50;99014.96;;;6.11;37.22
80414;BME280;69758;52.580;13.068;2024-01-15T11:37:05;99022.08;;;6.20;37.66
80414;BME280;69758;52.580;13.068;2024-01-15T11:39:39;99023.01;;;6.20;38.36
80414;BME280;69758;52.580;13.068;2024-01-15T11:41:57;99019.41;;;5.51;39.34
80414;BME280;69758;52.580;13.068;2024-01-15T11:44:22;99022.97;;;5.97;38.92
80414;BME280;69758;52.580;13.068;2024-01-15T11:46:54;99019.58;;;6.52;37.94
80414;BME280;69758;52.580;13.068;2024-01-15T11:49:21;99019.70;;;6.21;38.22
80414;BME280;69758;52.580;13.068;2024-01-15T11:51:39;99018.82;;;5.85;38.42
80414;BME280;69758;52.580;13.068;2024-01-15T11:54:06;99022.10;;;6.27;37.98
80414;BME280;69758;52.580;13.068;2024-01-15T11:56:31;99016.39;;;6.81;37.07
80414;BME280;69758;52.580;13.068;2024-01-15T11:58:55;99020.01;;;6.60;37.13
80414;BME280;69758;52.580;13.068;2024-01-15T12:01:21;99015.04;;;6.89;36.71
80414;BME280;69758;52.580;13.068;2024-01-15T12:03:47;98999.21;;;6.88;36.41
80414;BME280;69758;52.580;13.068;2024-01-15T12:06:11;99019.53;;;6.30;37.11
80414;BME280;69758;52.580;13.068;2024-01-15T12:08:37;99018.97;;;6.01;37.68
80414;BME280;69758;52.580;13.068;2024-01-15T12:11:06;99020.78;;;6.07;37.56
80414;BME280;69758;52.580;13.068;2024-01-15T12:13:28;99021.55;;;6.46;37.16
80414;BME280;69758;52.580;13.068;2024-01-15T12:15:54;99022.85;;;6.02;37.13
80414;BME280;69758;52.580;13.068;2024-01-15T12:18:19;99026.23;;;6.20;37.72
80414;BME280;69758;52.580;13.068;2024-01-15T12:20:46;99023.20;;;6.38;37.45
80414;BME280;69758;52.580;13.068;2024-01-15T12:23:10;99030.87;;;6.90;36.85
80414;BME280;69758;52.580;13.068;2024-01-15T12:25:36;99043.05;;;6.49;36.41
80414;BME280;69758;52.580;13.068;2024-01-15T12:28:01;99045.19;;;6.79;37.00
80414;BME280;69758;52.580;13.068;2024-01-15T12:30:26;99054.99;;;6.51;37.47
80414;BME280;69758;52.580;13.068;2024-01-15T12:32:52;99051.73;;;6.50;37.28
80414;BME280;69758;52.580;13.068;2024-01-15T12:35:17;99058.00;;;6.43;37.51
80414;BME280;69758;52.580;13.068;2024-01-15T12:37:48;99051.98;;;6.98;37.20
80414;BME280;69758;52.580;13.068;2024-01-15T12:40:10;99054.87;;;6.60;37.63
80414;BME280;69758;52.580;13.068;2024-01-15T12:42:34;99050.66;;;6.42;37.84
80414;BME280;69758;52.580;13.068;2024-01-15T12:45:00;99051.13;;;6.61;37.74
80414;BME280;69758;52.580;13.068;2024-01-15T12:47:25;99054.25;;;6.75;37.81
80414;BME280;69758;52.580;13.068;2024-01-15T12:49:51;99053.53;;;6.64;37.42
80414;BME280;69758;52.580;13.068;2024-01-15T12:52:19;99052.39;;;6.68;37.59
80414;BME280;69758;52.580;13.068;2024-01-15T12:54:41;99054.65;;;6.49;37.24